Time;durP1;ratioP1;P1;durP2;ratioP2;P2;SDS_P1;SDS_P2;PMS_P1;PMS_P2;Temp;Humidity;BMP_temperature;BMP_pressure;BME280_temperature;BME280_humidity;BME280_pressure;Samples;Min_cycle;Max_cycle;Signal;HPM_P1;HPM_P2
2021/06/14 00:00:25;;;;;;;7.50;6.93;;;17.50;90.40;;;;;;5012844;28;20882;-78
2021/06/14 00:02:51;;;;;;;6.83;6.33;;;17.50;90.40;;;;;;5013605;28;20529;-78
2021/06/14 00:05:41;;;;;;;7.90;7.20;;;17.50;90.50;;;;;;5012748;28;20471;-78
2021/06/14 00:08:11;;;;;;;8.87;7.80;;;17.50;90.50;;;;;;5012999;28;20543;-78
2021/06/14 00:10:37;;;;;;;7.50;6.90;;;17.40;90.50;;;;;;5012977;28;21023;-78
2021/06/14 00:13:06;;;;;;;7.93;7.13;;;17.40;90.10;;;;;;5013443;28;20446;-78
2021/06/14 00:15:32;;;;;;;7.73;6.87;;;17.40;90.60;;;;;;5012671;28;20422;-78
2021/06/14 00:17:58;;;;;;;8.10;7.40;;;17.40;90.50;;;;;;5011459;28;20418;-78
2021/06/14 00:20:25;;;;;;;8.00;7.20;;;17.30;90.60;;;;;;5012574;28;20823;-78
2021/06/14 00:22:51;;;;;;;7.87;6.90;;;17.30;90.00;;;;;;5013280;28;20501;-78
2021/06/14 00:25:23;;;;;;;7.27;6.60;;;17.30;90.00;;;;;;5012721;28;20410;-78
2021/06/14 00:27:50;;;;;;;8.17;7.03;;;17.30;90.40;;;;;;5013096;28;20409;-78
2021/06/14 00:30:25;;;;;;;8.93;8.03;;;17.30;90.60;;;;;;5011366;28;20506;-78
2021/06/14 00:32:51;;;;;;;8.43;7.40;;;17.30;90.40;;;;;;5013184;28;20480;-78
2021/06/14 00:35:16;;;;;;;7.50;6.80;;;17.20;90.30;;;;;;5012102;28;20445;-78
2021/06/14 00:37:42;;;;;;;12.90;8.17;;;17.20;90.60;;;;;;5012550;28;20179;-78
2021/06/14 00:40:08;;;;;;;7.60;7.00;;;17.20;90.80;;;;;;5012629;28;20183;-78
2021/06/14 00:42:34;;;;;;;7.80;7.10;;;17.20;91.10;;;;;;5012213;28;20175;-78
2021/06/14 00:45:00;;;;;;;8.37;7.67;;;17.10;91.30;;;;;;5012915;28;20399;-78
2021/06/14 00:47:26;;;;;;;7.23;6.73;;;17.10;91.10;;;;;;5010815;28;20416;-77
2021/06/14 00:49:52;;;;;;;8.43;7.50;;;17.10;91.20;;;;;;5012554;28;20485;-77
2021/06/14 00:52:18;;;;;;;8.07;7.37;;;17.10;91.30;;;;;;5011864;28;20213;-77
2021/06/14 00:54:44;;;;;;;8.07;7.27;;;17.10;91.00;;;;;;5013322;28;20229;-77
2021/06/14 00:57:10;;;;;;;7.90;7.30;;;17.10;91.20;;;;;;5012638;28;20422;-77
2021/06/14 00:59:36;;;;;;;7.67;6.97;;;17.10;90.90;;;;;;5011623;28;20402;-77
2021/06/14 01:02:01;;;;;;;7.33;6.73;;;17.00;91.30;;;;;;5012734;28;20171;-77
2021/06/14 01:04:27;;;;;;;8.30;7.50;;;17.00;91.40;;;;;;5011799;28;20171;-77
2021/06/14 01:06:53;;;;;;;7.03;6.40;;;17.00;91.30;;;;;;5011955;28;20576;-77
2021/06/14 01:09:19;;;;;;;7.57;6.90;;;17.00;91.30;;;;;;5011700;28;20337;-77
2021/06/14 01:12:08;;;;;;;7.90;7.10;;;16.90;91.20;;;;;;5012553;28;20175;-77
2021/06/14 01:14:59;;;;;;;11.00;6.83;;;16.90;91.00;;;;;;5011754;28;20167;-77
2021/06/14 01:17:34;;;;;;;8.87;7.17;;;16.90;91.20;;;;;;5011752;28;20755;-78
2021/06/14 01:20:27;;;;;;;6.80;6.10;;;16.80;91.30;;;;;;5012533;28;20441;-77
2021/06/14 01:23:21;;;;;;;7.13;6.50;;;16.80;91.50;;;;;;5012526;28;20462;-77
2021/06/14 01:25:59;;;;;;;8.90;8.00;;;16.80;91.40;;;;;;5012458;28;20417;-77
2021/06/14 01:28:27;;;;;;;8.00;7.20;;;16.80;91.70;;;;;;5011165;28;20777;-77
2021/06/14 01:30:54;;;;;;;7.70;7.00;;;16.70;91.60;;;;;;5012449;28;20887;-77
2021/06/14 01:33:24;;;;;;;8.40;7.13;;;16.70;91.90;;;;;;5011293;28;20934;-77
2021/06/14 01:36:18;;;;;;;8.13;7.43;;;16.80;91.90;;;;;;5011812;28;20426;-77
2021/06/14 01:38:45;;;;;;;9.30;7.70;;;16.70;92.00;;;;;;5006275;28;20456;-77
2021/06/14 01:41:13;;;;;;;11.17;6.47;;;16.70;91.80;;;;;;5012275;28;20424;-77
2021/06/14 01:43:41;;;;;;;7.77;7.10;;;16.70;91.90;;;;;;5011339;28;20503;-77
2021/06/14 01:46:09;;;;;;;8.50;7.60;;;16.70;92.00;;;;;;5013925;28;20414;-77
2021/06/14 01:48:38;;;;;;;8.40;7.60;;;16.70;92.10;;;;;;5014860;28;20512;-78
2021/06/14 01:51:07;;;;;;;7.77;7.17;;;16.70;92.10;;;;;;5016300;28;20460;-78
2021/06/14 01:53:34;;;;;;;7.23;6.70;;;16.60;92.20;;;;;;5015323;28;20421;-77
2021/06/14 01:56:00;;;;;;;9.20;7.70;;;16.60;92.30;;;;;;5016163;28;20409;-77
2021/06/14 01:58:26;;;;;;;8.53;7.70;;;16.60;92.20;;;;;;5015127;28;20425;-77
2021/06/14 02:00:53;;;;;;;7.97;6.97;;;16.50;92.00;;;;;;5015855;28;20432;-77
2021/06/14 02:03:19;;;;;;;8.63;7.90;;;16.60;92.30;;;;;;5015489;28;20401;-78
2021/06/14 02:05:47;;;;;;;7.67;6.87;;;16.50;92.40;;;;;;5015306;28;20441;-77
2021/06/14 02:08:14;;;;;;;7.83;6.93;;;16.50;92.30;;;;;;5015226;28;20480;-77
2021/06/14 02:10:41;;;;;;;8.70;8.00;;;16.50;92.60;;;;;;5014742;28;20429;-78
2021/06/14 02:13:07;;;;;;;8.80;7.93;;;16.50;92.50;;;;;;5015487;28;20916;-77
2021/06/14 02:15:33;;;;;;;8.13;7.43;;;16.50;92.60;;;;;;5014862;28;20754;-77
2021/06/14 02:18:01;;;;;;;8.70;7.90;;;16.50;92.40;;;;;;5015153;28;20418;-77
2021/06/14 02:20:27;;;;;;;10.40;7.80;;;16.50;92.50;;;;;;5014423;28;20413;-77
2021/06/14 02:22:53;;;;;;;8.27;7.37;;;16.40;92.20;;;;;;5015563;28;20417;-77
2021/06/14 02:25:19;;;;;;;7.40;6.70;;;16.40;92.40;;;;;;5015275;28;20425;-78
2021/06/14 02:27:45;;;;;;;9.20;6.93;;;16.40;92.60;;;;;;5015019;28;20170;-77
2021/06/14 02:30:21;;;;;;;8.63;7.83;;;16.30;92.60;;;;;;5015328;28;20456;-77
2021/06/14 02:32:49;;;;;;;8.30;7.50;;;16.30;92.60;;;;;;5015296;28;20178;-78
2021/06/14 02:35:15;;;;;;;6.90;6.30;;;16.30;92.50;;;;;;5015266;28;20424;-77
2021/06/14 02:37:48;;;;;;;7.70;6.90;;;16.30;92.50;;;;;;5013734;28;20432;-77
2021/06/14 02:40:15;;;;;;;8.53;7.73;;;16.30;92.30;;;;;;5015309;28;20421;-77
2021/06/14 02:42:43;;;;;;;8.83;7.67;;;16.20;92.20;;;;;;5014414;28;20939;-78
2021/06/14 02:45:10;;;;;;;8.10;7.50;;;16.30;92.80;;;;;;5015050;28;20759;-78
2021/06/14 02:47:37;;;;;;;8.23;7.60;;;16.20;92.80;;;;;;5014255;28;20417;-78
2021/06/14 02:50:07;;;;;;;7.47;6.63;;;16.20;92.60;;;;;;5014864;28;20487;-77
2021/06/14 02:52:35;;;;;;;7.53;6.93;;;16.20;92.70;;;;;;5013814;28;20440;-77
2021/06/14 02:55:07;;;;;;;7.83;7.03;;;16.20;92.90;;;;;;5014947;28;20448;-77
2021/06/14 02:57:34;;;;;;;7.93;7.13;;;16.20;93.10;;;;;;5013466;28;20506;-77
2021/06/14 03:00:01;;;;;;;7.37;6.63;;;16.20;93.40;;;;;;5014860;28;20436;-77
2021/06/14 03:02:27;;;;;;;8.60;7.80;;;16.10;93.30;;;;;;5013953;28;20455;-77
2021/06/14 03:04:54;;;;;;;7.97;7.30;;;16.20;93.40;;;;;;5014747;28;20417;-77
2021/06/14 03:07:22;;;;;;;7.33;6.73;;;16.10;93.10;;;;;;5014679;28;20465;-78
2021/06/14 03:09:49;;;;;;;7.93;7.30;;;16.10;92.80;;;;;;5014140;28;20519;-78
2021/06/14 03:12:16;;;;;;;7.40;6.90;;;16.10;93.10;;;;;;5014544;28;20417;-78
2021/06/14 03:14:43;;;;;;;7.80;7.10;;;16.00;93.10;;;;;;5013774;28;20413;-78
2021/06/14 03:17:09;;;;;;;8.63;7.77;;;16.10;93.10;;;;;;5014087;28;20437;-78
2021/06/14 03:19:36;;;;;;;7.90;7.10;;;16.00;93.10;;;;;;5013422;28;20502;-78
2021/06/14 03:22:11;;;;;;;7.73;7.03;;;16.00;93.40;;;;;;5014428;28;20429;-78
2021/06/14 03:24:39;;;;;;;7.50;6.47;;;16.00;93.70;;;;;;5013604;28;20414;-78
2021/06/14 03:27:06;;;;;;;7.50;6.90;;;16.00;93.70;;;;;;5014452;28;20420;-78
2021/06/14 03:29:33;;;;;;;7.50;6.93;;;16.00;93.70;;;;;;5012834;28;20483;-78
2021/06/14 03:32:01;;;;;;;8.30;6.87;;;16.00;93.80;;;;;;5013993;28;20411;-77
2021/06/14 03:34:27;;;;;;;10.97;6.30;;;16.00;93.70;;;;;;5012210;28;20416;-77
2021/06/14 03:36:53;;;;;;;7.23;6.63;;;16.00;93.90;;;;;;5014374;28;20423;-77
2021/06/14 03:39:19;;;;;;;8.23;7.40;;;16.00;93.90;;;;;;5014209;28;20425;-77
2021/06/14 03:41:47;;;;;;;7.13;6.50;;;16.00;94.00;;;;;;5013200;28;20498;-77
2021/06/14 03:44:14;;;;;;;7.47;6.80;;;16.00;93.90;;;;;;5013954;28;20413;-77
2021/06/14 03:46:40;;;;;;;7.63;6.80;;;16.00;93.90;;;;;;5013189;28;20783;-78
2021/06/14 03:49:06;;;;;;;10.33;7.33;;;15.90;93.90;;;;;;5013634;28;20509;-78
2021/06/14 03:51:32;;;;;;;8.63;7.90;;;15.90;94.20;;;;;;5013120;28;20175;-78
2021/06/14 03:53:59;;;;;;;7.30;6.70;;;15.90;94.10;;;;;;5013852;28;20210;-78
2021/06/14 03:56:31;;;;;;;7.70;7.00;;;15.90;94.30;;;;;;5013190;28;20420;-78
2021/06/14 03:58:57;;;;;;;9.63;8.73;;;15.90;94.30;;;;;;4994265;28;20739;-78
2021/06/14 04:01:24;;;;;;;11.80;10.90;;;15.90;94.50;;;;;;4994138;28;20966;-78
2021/06/14 04:06:26;;;;;;;9.30;8.50;;;15.90;94.50;;;;;;5013377;28;20413;-78
2021/06/14 04:08:51;;;;;;;7.97;7.17;;;15.90;94.60;;;;;;5012290;28;20462;-78
2021/06/14 04:11:18;;;;;;;8.40;7.73;;;15.90;95.00;;;;;;5013516;28;20885;-77
2021/06/14 04:13:44;;;;;;;11.30;10.50;;;16.00;94.90;;;;;;5012668;28;20190;-77
2021/06/14 04:16:10;;;;;;;9.63;8.80;;;16.00;94.80;;;;;;5013435;28;20405;-78
2021/06/14 04:18:36;;;;;;;8.67;7.63;;;16.00;94.70;;;;;;5012540;28;20752;-77
2021/06/14 04:21:02;;;;;;;11.77;10.80;;;16.00;95.10;;;;;;5012745;28;20182;-78
2021/06/14 04:23:27;;;;;;;8.50;7.70;;;16.10;94.70;;;;;;5012534;28;20188;-78
2021/06/14 04:25:53;;;;;;;10.37;9.57;;;16.10;94.80;;;;;;5012366;28;20242;-78
2021/06/14 04:28:19;;;;;;;8.50;7.70;;;16.10;95.30;;;;;;5011632;28;20602;-79
2021/06/14 04:30:44;;;;;;;8.73;8.00;;;16.20;95.10;;;;;;5012363;28;20262;-78
2021/06/14 04:33:10;;;;;;;10.97;10.07;;;16.20;95.30;;;;;;5012218;28;20264;-74
2021/06/14 04:35:36;;;;;;;9.13;8.33;;;16.20;98.70;;;;;;4998809;28;20186;-75
2021/06/14 04:38:02;;;;;;;10.97;10.10;;;16.20;97.60;;;;;;5012636;28;20179;-75
2021/06/14 04:40:28;;;;;;;10.70;9.80;;;16.20;96.30;;;;;;5011239;28;20202;-75
2021/06/14 04:42:53;;;;;;;12.77;11.53;;;16.20;95.90;;;;;;5011943;28;20425;-74
2021/06/14 04:45:19;;;;;;;11.27;9.30;;;16.10;95.70;;;;;;5012917;28;20566;-74
2021/06/14 04:47:48;;;;;;;10.23;9.30;;;16.00;95.70;;;;;;5007599;28;20224;-74
2021/06/14 04:50:16;;;;;;;13.23;12.13;;;16.00;95.90;;;;;;5003021;28;20802;-75
2021/06/14 04:52:44;;;;;;;13.77;9.80;;;15.90;96.10;;;;;;5010298;28;20432;-76
2021/06/14 04:55:11;;;;;;;12.77;11.33;;;15.90;96.40;;;;;;5012018;28;20465;-76
2021/06/14 04:57:37;;;;;;;12.97;9.50;;;15.90;96.90;;;;;;5011455;28;20459;-76
2021/06/14 05:00:05;;;;;;;9.13;8.07;;;15.90;96.80;;;;;;5012031;28;20437;-76
2021/06/14 05:02:31;;;;;;;9.77;8.60;;;15.90;97.00;;;;;;5009993;28;20184;-77
2021/06/14 05:04:57;;;;;;;8.70;7.60;;;16.00;97.10;;;;;;5005076;28;20424;-77
2021/06/14 05:07:23;;;;;;;12.53;11.47;;;16.00;97.10;;;;;;5007708;28;20209;-76
2021/06/14 05:09:49;;;;;;;9.83;8.93;;;16.10;99.40;;;;;;5011664;28;21159;-76
2021/06/14 05:12:15;;;;;;;13.17;11.87;;;16.10;98.10;;;;;;5008229;28;20262;-76
2021/06/14 05:14:41;;;;;;;10.40;9.00;;;16.20;98.10;;;;;;5011621;28;20504;-76
2021/06/14 05:17:07;;;;;;;12.00;10.70;;;16.30;98.30;;;;;;5012375;28;20182;-75
2021/06/14 05:19:32;;;;;;;11.90;9.23;;;16.30;98.30;;;;;;5014705;28;20264;-81
2021/06/14 05:22:01;;;;;;;14.20;8.50;;;16.40;98.30;;;;;;5007604;28;20294;-80
2021/06/14 05:24:28;;;;;;;11.90;10.70;;;16.50;98.20;;;;;;5009132;28;20425;-80
2021/06/14 05:26:54;;;;;;;17.27;9.73;;;16.60;98.10;;;;;;5012619;28;20900;-80
2021/06/14 05:29:19;;;;;;;12.80;10.13;;;16.70;98.00;;;;;;5012608;28;20465;-81
2021/06/14 05:31:45;;;;;;;10.33;8.90;;;16.80;97.90;;;;;;5000659;28;20497;-80
2021/06/14 05:34:11;;;;;;;14.87;10.53;;;16.90;97.80;;;;;;5012668;28;20178;-80
2021/06/14 05:36:37;;;;;;;17.90;10.17;;;17.00;97.80;;;;;;5011427;28;20175;-81
2021/06/14 05:39:03;;;;;;;22.40;10.90;;;17.10;97.80;;;;;;5012106;28;20619;-82
2021/06/14 05:41:29;;;;;;;23.23;12.57;;;17.20;98.10;;;;;;5010871;28;20583;-82
2021/06/14 05:43:55;;;;;;;20.23;9.30;;;17.30;97.60;;;;;;5012407;28;20420;-83
2021/06/14 05:46:21;;;;;;;13.20;9.93;;;17.40;97.70;;;;;;5004826;28;20426;-82
2021/06/14 05:48:47;;;;;;;16.93;9.20;;;17.50;97.80;;;;;;5005984;28;20214;-80
2021/06/14 05:51:14;;;;;;;11.40;8.90;;;17.60;96.90;;;;;;5012567;28;20909;-80
2021/06/14 05:53:40;;;;;;;11.50;10.50;;;17.70;95.90;;;;;;5010799;28;20434;-80
2021/06/14 05:56:06;;;;;;;11.00;10.00;;;17.80;95.30;;;;;;5011655;28;20450;-80
2021/06/14 05:58:33;;;;;;;10.90;7.30;;;17.90;95.00;;;;;;5012146;28;20464;-85
2021/06/14 06:00:59;;;;;;;11.27;10.13;;;18.10;95.70;;;;;;5010417;28;20466;-85
2021/06/14 06:03:25;;;;;;;7.93;7.10;;;18.20;97.90;;;;;;5011728;28;20410;-85
2021/06/14 06:05:52;;;;;;;7.83;6.83;;;18.20;95.40;;;;;;5010293;28;20519;-86
2021/06/14 06:08:18;;;;;;;8.93;8.10;;;18.30;94.10;;;;;;5012303;28;20416;-86
2021/06/14 06:10:45;;;;;;;10.40;8.00;;;18.30;95.30;;;;;;5010499;28;20484;-86
2021/06/14 06:13:11;;;;;;;8.27;7.67;;;18.40;95.60;;;;;;5012210;28;20936;-86
2021/06/14 06:15:37;;;;;;;7.13;6.43;;;18.40;94.00;;;;;;5011468;28;20418;-85
2021/06/14 06:18:03;;;;;;;18.63;14.60;;;18.40;93.50;;;;;;5010764;28;20781;-86
2021/06/14 06:20:29;;;;;;;24.30;21.20;;;18.70;98.00;;;;;;5008156;28;20207;-86
2021/06/14 06:22:55;;;;;;;14.90;13.33;;;18.90;98.00;;;;;;5009411;28;20941;-87
2021/06/14 06:25:24;;;;;;;8.03;6.80;;;19.10;97.20;;;;;;5011629;28;20921;-87
2021/06/14 06:27:50;;;;;;;7.77;7.03;;;19.40;95.30;;;;;;5009490;28;20214;-83
2021/06/14 06:30:21;;;;;;;8.83;6.50;;;19.40;92.40;;;;;;5011351;28;20512;-83
2021/06/14 06:32:47;;;;;;;7.40;6.33;;;19.50;92.20;;;;;;5012107;28;20398;-83
2021/06/14 06:35:14;;;;;;;11.97;9.20;;;19.70;92.30;;;;;;5015132;28;20426;-84
2021/06/14 06:37:39;;;;;;;7.00;6.17;;;19.70;92.10;;;;;;5012065;28;20876;-83
2021/06/14 06:40:07;;;;;;;8.60;7.83;;;19.90;91.20;;;;;;5015239;28;20525;-83
2021/06/14 06:42:33;;;;;;;11.13;9.50;;;20.00;91.30;;;;;;5015339;28;20199;-83
2021/06/14 06:44:59;;;;;;;11.40;9.10;;;20.10;92.10;;;;;;5015531;28;20428;-83
2021/06/14 06:47:25;;;;;;;15.17;11.07;;;20.20;92.20;;;;;;5014849;28;20501;-82
2021/06/14 06:49:51;;;;;;;11.03;9.90;;;20.40;91.60;;;;;;5014323;28;20239;-83
2021/06/14 06:52:17;;;;;;;8.17;7.33;;;20.50;90.80;;;;;;5014556;28;20224;-83
2021/06/14 06:54:43;;;;;;;6.07;5.47;;;20.70;91.20;;;;;;5014084;28;20631;-83
2021/06/14 06:57:09;;;;;;;6.13;5.10;;;20.70;89.20;;;;;;5015296;28;20406;-83
2021/06/14 06:59:35;;;;;;;51.83;45.63;;;20.70;84.00;;;;;;5014667;28;20767;-82
2021/06/14 07:02:01;;;;;;;17.10;15.10;;;20.70;84.70;;;;;;5002043;28;20437;-83
2021/06/14 07:04:26;;;;;;;6.97;6.40;;;20.90;85.30;;;;;;4995570;28;20411;-81
2021/06/14 07:06:52;;;;;;;66.77;39.63;;;20.90;83.40;;;;;;4994647;28;20172;-82
2021/06/14 07:09:18;;;;;;;8.80;8.10;;;21.10;92.60;;;;;;5000924;28;20205;-82
2021/06/14 07:11:44;;;;;;;24.43;15.50;;;21.20;88.80;;;;;;5014303;28;20183;-85
2021/06/14 07:14:10;;;;;;;7.33;6.60;;;21.30;90.80;;;;;;5014577;28;20419;-84
2021/06/14 07:16:36;;;;;;;6.93;5.13;;;21.40;81.50;;;;;;5014143;28;20955;-81
2021/06/14 07:19:03;;;;;;;7.77;7.27;;;21.60;82.70;;;;;;5014038;28;20176;-83
2021/06/14 07:21:29;;;;;;;6.00;5.60;;;21.60;78.00;;;;;;5014596;28;20186;-83
2021/06/14 07:23:55;;;;;;;8.97;8.30;;;21.50;77.20;;;;;;5013688;28;20511;-83
2021/06/14 07:26:24;;;;;;;5.47;5.07;;;21.70;79.80;;;;;;5014366;28;20462;-82
2021/06/14 07:28:50;;;;;;;50.47;39.80;;;21.90;79.70;;;;;;4993928;28;20221;-82
2021/06/14 07:31:17;;;;;;;16.37;14.10;;;22.00;78.60;;;;;;4994930;28;20415;-83
2021/06/14 07:33:43;;;;;;;9.07;8.40;;;22.10;77.20;;;;;;5009579;28;20504;-78
2021/06/14 07:36:11;;;;;;;7.63;7.03;;;22.10;77.30;;;;;;5014076;28;20764;-78
2021/06/14 07:38:37;;;;;;;6.53;4.60;;;22.30;78.20;;;;;;5006748;28;20506;-80
2021/06/14 07:41:05;;;;;;;6.80;6.30;;;22.50;78.20;;;;;;5008019;28;20488;-81
2021/06/14 07:43:31;;;;;;;4.90;4.60;;;22.50;73.10;;;;;;5002193;28;20440;-80
2021/06/14 07:45:58;;;;;;;7.20;5.80;;;22.60;76.50;;;;;;5012901;28;20421;-81
2021/06/14 07:48:24;;;;;;;7.20;6.57;;;22.70;77.30;;;;;;5013352;28;21625;-81
2021/06/14 07:50:52;;;;;;;4.47;4.07;;;22.80;75.00;;;;;;4998459;28;20501;-80
2021/06/14 07:53:19;;;;;;;6.10;5.60;;;22.90;74.90;;;;;;5013814;28;20429;-81
2021/06/14 07:55:45;;;;;;;6.50;5.90;;;22.90;72.50;;;;;;5013133;28;20500;-79
2021/06/14 07:58:11;;;;;;;5.60;5.10;;;23.00;75.80;;;;;;5013044;28;20425;-76
2021/06/14 08:00:39;;;;;;;5.40;5.00;;;23.10;71.10;;;;;;5013586;28;20537;-76
2021/06/14 08:03:05;;;;;;;5.50;5.10;;;23.10;73.30;;;;;;5012953;28;20214;-76
2021/06/14 08:05:30;;;;;;;6.30;5.70;;;23.30;74.00;;;;;;5012861;28;20460;-76
2021/06/14 08:07:56;;;;;;;5.20;4.90;;;23.20;69.50;;;;;;5012783;28;20175;-77
2021/06/14 08:10:23;;;;;;;5.70;5.30;;;23.30;69.70;;;;;;5012982;28;20222;-78
2021/06/14 08:12:50;;;;;;;6.40;5.90;;;23.50;72.00;;;;;;5011515;28;20262;-75
2021/06/14 08:15:20;;;;;;;6.40;5.90;;;23.60;71.60;;;;;;5012996;28;20414;-75
2021/06/14 08:17:46;;;;;;;6.03;5.57;;;23.90;73.60;;;;;;5009405;28;20430;-75
2021/06/14 08:20:30;;;;;;;14.93;13.60;;;23.90;69.50;;;;;;5009427;28;20918;-79
2021/06/14 08:25:40;;;;;;;7.23;6.63;;;24.20;68.50;;;;;;5013078;28;20445;-77
2021/06/14 08:28:06;;;;;;;6.27;5.87;;;24.40;66.90;;;;;;5012153;28;20450;-79
2021/06/14 08:30:32;;;;;;;7.00;6.40;;;24.40;65.90;;;;;;5013321;28;20179;-79
2021/06/14 08:32:58;;;;;;;5.93;5.40;;;24.60;68.00;;;;;;4995484;28;20188;-79
2021/06/14 08:35:26;;;;;;;5.80;5.40;;;24.60;67.20;;;;;;4992282;28;20411;-77
2021/06/14 08:37:53;;;;;;;7.83;7.43;;;24.70;63.50;;;;;;4992673;28;20469;-78
2021/06/14 08:40:25;;;;;;;6.20;5.63;;;24.90;64.80;;;;;;4994118;28;20942;-76
2021/06/14 08:42:51;;;;;;;8.37;7.80;;;25.00;66.00;;;;;;4997643;28;20425;-78
2021/06/14 08:45:18;;;;;;;6.60;6.10;;;25.20;66.50;;;;;;5012950;28;20410;-78
2021/06/14 08:47:46;;;;;;;5.93;5.23;;;25.30;65.20;;;;;;5012279;28;20276;-77
2021/06/14 08:50:15;;;;;;;9.60;9.00;;;25.40;63.80;;;;;;5012757;28;20644;-78
2021/06/14 08:52:41;;;;;;;6.30;5.90;;;25.50;65.60;;;;;;5012700;28;20520;-78
2021/06/14 08:55:11;;;;;;;8.13;7.37;;;25.60;65.70;;;;;;5006073;28;20506;-82
2021/06/14 08:57:37;;;;;;;4.80;4.50;;;25.70;62.20;;;;;;5010595;28;20422;-82
2021/06/14 09:00:10;;;;;;;6.47;6.10;;;25.80;62.60;;;;;;5010119;28;20633;-82
2021/06/14 09:02:36;;;;;;;5.50;5.07;;;26.00;61.60;;;;;;5012559;28;20947;-83
2021/06/14 09:05:03;;;;;;;5.97;5.57;;;26.20;62.50;;;;;;5011930;28;20776;-82
2021/06/14 09:07:29;;;;;;;6.97;6.40;;;26.30;61.90;;;;;;5012349;28;20787;-81
2021/06/14 09:09:55;;;;;;;6.17;5.77;;;26.30;58.90;;;;;;5012375;28;20480;-79
2021/06/14 09:12:22;;;;;;;5.57;5.07;;;26.40;59.90;;;;;;5012990;28;20410;-80
2021/06/14 09:14:48;;;;;;;7.80;7.20;;;26.50;60.30;;;;;;5012296;28;20175;-80
2021/06/14 09:17:17;;;;;;;5.57;4.83;;;26.60;59.70;;;;;;5007030;28;20920;-80
2021/06/14 09:19:50;;;;;;;92.23;82.13;;;26.70;58.70;;;;;;4992323;28;20206;-79
2021/06/14 09:22:19;;;;;;;174.13;147.23;;;26.70;58.60;;;;;;5007425;28;20498;-81
2021/06/14 09:25:11;;;;;;;32.53;29.17;;;26.40;58.50;;;;;;5011806;28;20444;-78
2021/06/14 09:27:41;;;;;;;13.53;12.27;;;26.60;58.90;;;;;;5012497;28;20409;-81
2021/06/14 09:30:15;;;;;;;139.23;124.63;;;26.80;58.20;;;;;;5011435;28;20469;-81
2021/06/14 09:33:04;;;;;;;26.73;24.27;;;26.90;59.70;;;;;;5012355;28;20414;-82
2021/06/14 09:35:35;;;;;;;63.17;56.37;;;26.90;57.20;;;;;;5006331;28;20411;-82
2021/06/14 09:38:09;;;;;;;8.53;8.00;;;27.10;59.00;;;;;;4992069;28;20401;-82
2021/06/14 09:40:42;;;;;;;6.47;6.07;;;27.20;58.70;;;;;;4992825;28;20410;-82
2021/06/14 09:43:20;;;;;;;6.40;6.00;;;27.40;57.50;;;;;;5010491;28;20457;-79
2021/06/14 09:45:46;;;;;;;27.40;25.10;;;27.50;58.30;;;;;;5011463;28;20413;-78
2021/06/14 09:48:27;;;;;;;39.40;35.60;;;27.70;58.80;;;;;;5012406;28;20413;-79
2021/06/14 09:50:55;;;;;;;6.03;5.60;;;27.80;57.10;;;;;;5024480;28;20222;-79
2021/06/14 09:53:24;;;;;;;7.50;7.00;;;27.90;56.80;;;;;;5024447;28;20925;-81
2021/06/14 09:55:51;;;;;;;5.10;4.80;;;28.00;56.60;;;;;;5010555;28;20750;-80
2021/06/14 09:58:25;;;;;;;6.97;6.37;;;28.10;56.80;;;;;;5011675;28;20424;-82
2021/06/14 10:00:59;;;;;;;8.53;5.60;;;28.20;59.70;;;;;;5012007;28;20940;-86
2021/06/14 10:03:43;;;;;;;4.80;4.50;;;28.30;57.50;;;;;;5011681;28;20426;-85
2021/06/14 10:06:10;;;;;;;5.53;5.10;;;28.30;58.10;;;;;;5011610;28;20448;-82
2021/06/14 10:08:36;;;;;;;6.50;5.43;;;28.30;58.90;;;;;;5015103;28;20818;-80
2021/06/14 10:11:07;;;;;;;7.47;6.87;;;28.20;58.00;;;;;;5015287;28;20426;-81
2021/06/14 10:13:34;;;;;;;7.97;7.30;;;27.80;56.30;;;;;;5015501;28;20530;-78
2021/06/14 10:16:07;;;;;;;5.43;5.00;;;27.70;56.00;;;;;;5014246;28;20785;-78
2021/06/14 10:18:42;;;;;;;4.60;4.30;;;27.60;57.90;;;;;;5015496;28;20518;-78
2021/06/14 10:21:22;;;;;;;6.93;6.43;;;27.70;58.50;;;;;;5014054;28;20922;-79
2021/06/14 10:23:51;;;;;;;6.10;5.50;;;27.70;57.00;;;;;;5011657;28;20501;-80
2021/06/14 10:26:19;;;;;;;7.53;7.10;;;27.80;58.50;;;;;;5014801;28;20422;-78
2021/06/14 10:28:46;;;;;;;4.53;4.13;;;27.90;58.60;;;;;;5014283;28;20453;-78
2021/06/14 10:31:12;;;;;;;5.53;5.20;;;28.00;61.40;;;;;;5013944;28;20454;-78
2021/06/14 10:33:40;;;;;;;6.67;6.37;;;28.00;57.00;;;;;;5014230;28;20955;-76
2021/06/14 10:36:07;;;;;;;5.50;5.03;;;28.20;56.80;;;;;;5014398;28;20233;-79
2021/06/14 10:38:39;;;;;;;5.73;5.33;;;28.20;57.10;;;;;;5015275;28;20424;-80
2021/06/14 10:41:05;;;;;;;5.67;5.20;;;28.30;58.00;;;;;;5026049;28;20417;-78
2021/06/14 10:43:32;;;;;;;5.37;5.00;;;28.10;54.20;;;;;;5033048;28;20401;-80
2021/06/14 10:45:59;;;;;;;5.40;5.00;;;28.10;55.60;;;;;;5013679;28;20410;-78
2021/06/14 10:48:33;;;;;;;5.40;5.10;;;27.90;52.60;;;;;;5012901;28;20940;-78
2021/06/14 10:51:02;;;;;;;9.03;8.63;;;27.90;54.90;;;;;;5014080;28;20555;-78
2021/06/14 10:53:30;;;;;;;8.03;7.63;;;28.10;57.30;;;;;;5015018;28;20905;-78
2021/06/14 10:56:00;;;;;;;5.50;5.10;;;28.20;57.90;;;;;;5013373;28;20472;-78
2021/06/14 10:58:29;;;;;;;6.60;6.30;;;28.30;57.00;;;;;;5014888;28;20410;-79
2021/06/14 11:00:59;;;;;;;4.77;4.37;;;28.40;58.90;;;;;;5013963;28;20836;-78
2021/06/14 11:03:46;;;;;;;7.10;6.60;;;28.50;56.00;;;;;;5014515;28;20424;-79
2021/06/14 11:06:23;;;;;;;66.07;57.77;;;28.60;56.00;;;;;;5014274;28;20540;-79
2021/06/14 11:09:22;;;;;;;24.93;22.63;;;28.60;55.90;;;;;;5014335;28;20453;-79
2021/06/14 11:11:59;;;;;;;4.90;4.60;;;28.70;56.20;;;;;;4992780;28;20430;-79
2021/06/14 11:14:41;;;;;;;5.47;5.00;;;28.70;54.90;;;;;;5014540;28;20943;-78
2021/06/14 11:17:26;;;;;;;5.63;5.23;;;28.70;56.60;;;;;;5012554;28;20422;-79
2021/06/14 11:20:03;;;;;;;6.67;6.37;;;28.80;56.90;;;;;;5013578;28;20495;-77
2021/06/14 11:22:42;;;;;;;4.73;4.40;;;28.60;52.30;;;;;;5014094;28;20533;-78
2021/06/14 11:25:33;;;;;;;7.57;7.20;;;28.60;54.10;;;;;;5013559;28;20405;-79
2021/06/14 11:28:05;;;;;;;8.83;8.33;;;28.50;55.20;;;;;;5013638;28;20414;-78
2021/06/14 11:30:36;;;;;;;4.80;4.50;;;28.60;56.50;;;;;;5014197;28;20504;-79
2021/06/14 11:33:04;;;;;;;7.77;7.27;;;28.70;58.30;;;;;;5013461;28;20817;-84
2021/06/14 11:35:33;;;;;;;5.77;5.40;;;28.80;58.00;;;;;;5014234;28;20425;-79
2021/06/14 11:38:01;;;;;;;34.57;30.97;;;28.90;55.50;;;;;;5012968;28;20508;-79
2021/06/14 11:40:29;;;;;;;92.17;82.93;;;28.90;53.50;;;;;;5013706;28;20414;-79
2021/06/14 11:43:05;;;;;;;10.90;9.00;;;28.80;56.00;;;;;;5013017;28;20775;-79
2021/06/14 11:45:32;;;;;;;5.70;5.40;;;28.90;56.30;;;;;;5014170;28;20540;-79
2021/06/14 11:48:00;;;;;;;7.40;6.80;;;28.90;54.90;;;;;;5013164;28;20444;-79
2021/06/14 11:50:28;;;;;;;5.60;5.30;;;28.90;54.90;;;;;;5013314;28;20489;-81
2021/06/14 11:53:03;;;;;;;5.00;4.57;;;29.00;57.50;;;;;;5013165;28;20910;-78
2021/06/14 11:55:32;;;;;;;5.43;5.13;;;29.10;55.90;;;;;;5013842;28;20424;-80
2021/06/14 11:57:59;;;;;;;4.43;4.13;;;29.20;54.70;;;;;;5012966;28;20418;-79
2021/06/14 12:00:30;;;;;;;5.13;4.73;;;29.20;55.20;;;;;;5013773;28;20414;-80
2021/06/14 12:02:57;;;;;;;5.10;4.80;;;29.20;54.90;;;;;;5012931;28;20410;-79
2021/06/14 12:05:36;;;;;;;4.33;4.13;;;29.20;55.50;;;;;;5013675;28;20414;-80
2021/06/14 12:08:05;;;;;;;4.50;4.20;;;29.20;55.40;;;;;;5012707;28;20769;-79
2021/06/14 12:10:31;;;;;;;5.43;5.13;;;29.20;55.50;;;;;;5013397;28;20454;-79
2021/06/14 12:13:01;;;;;;;6.77;6.27;;;29.30;55.90;;;;;;5013070;28;20414;-78
2021/06/14 12:15:27;;;;;;;6.43;5.93;;;29.30;56.90;;;;;;5012898;28;20441;-79
2021/06/14 12:17:53;;;;;;;5.40;5.10;;;29.40;55.00;;;;;;5013130;28;20501;-79
2021/06/14 12:20:31;;;;;;;5.07;4.70;;;29.40;54.90;;;;;;5013165;28;20505;-78
2021/06/14 12:23:10;;;;;;;9.73;9.03;;;29.40;55.00;;;;;;5012887;28;20174;-78
2021/06/14 12:25:44;;;;;;;5.87;5.43;;;29.40;53.90;;;;;;5013437;28;20532;-78
2021/06/14 12:28:13;;;;;;;5.40;5.03;;;29.50;54.00;;;;;;5012890;28;20402;-78
2021/06/14 12:30:44;;;;;;;5.13;4.77;;;29.50;56.30;;;;;;5012511;28;20449;-78
2021/06/14 12:33:10;;;;;;;5.50;5.20;;;29.50;56.60;;;;;;5012233;28;20424;-78
2021/06/14 12:35:38;;;;;;;5.67;5.27;;;29.50;54.70;;;;;;5012761;28;20844;-78
2021/06/14 12:38:09;;;;;;;5.17;4.87;;;29.50;55.90;;;;;;5010180;28;20457;-78
2021/06/14 12:40:36;;;;;;;6.33;5.83;;;29.60;55.60;;;;;;5010776;28;20429;-78
2021/06/14 12:43:06;;;;;;;5.03;4.83;;;29.70;57.80;;;;;;5009346;28;20833;-78
2021/06/14 12:45:34;;;;;;;9.13;8.50;;;29.70;56.00;;;;;;5009373;28;20441;-76
2021/06/14 12:48:04;;;;;;;8.40;7.60;;;29.80;58.50;;;;;;5011611;28;20834;-78
2021/06/14 12:50:36;;;;;;;5.90;5.40;;;29.80;56.60;;;;;;5012270;28;20480;-78
2021/06/14 12:53:03;;;;;;;5.37;5.07;;;29.90;56.00;;;;;;5011673;28;20423;-78
2021/06/14 12:55:34;;;;;;;5.00;4.60;;;29.90;53.90;;;;;;5012530;28;20406;-78